Share

Milos, Greece

Santorini (LGSR) Elev 125 ft | 36.40 °N, 25.48 °E | Change Station

Current weather conditions updated 19 minutes ago

Light Rain
Light Rain
57 °F
Feels Like 57 °F
N
12
Wind Variable Wind from South
Sunrise 6:43 AM
Sunset 7:59 PM
Moon Waning Gibbous

Today is forecast to be nearly the same temperature as yesterday.

Pressure 29.83 in
Visibility -9999.0 miles
Clouds
Dew Point 45 °F
Humidity 63%
Rainfall 0.00 in
Snow Depth Not available.
UV Not available.
Pollen Not available.
Air Quality Not available.
Flu Activity Not available.
METAR LGSR 182320Z AUTO 19010KT 160V240 //// -RA ////// 14/07 Q1010 RE//

More Conditions Fewer Conditions

Pressure 29.83 in
Visibility -9999.0 miles
Clouds
Dew Point 45 °F
Humidity 63%
Rainfall 0.00 in
Snow Depth Not available.
UV Not available.
Pollen Not available.
Air Quality Not available.
Flu Activity Not available.
METAR LGSR 182320Z AUTO 19010KT 160V240 //// -RA ////// 14/07 Q1010 RE//

More Conditions Fewer Conditions

10-Day Weather Forecast

Almanac

Astronomy

Apr. 19, 2014 Rise Set
Actual Time 6:43 AM EEST 7:59 PM EEST
Civil Twilight 6:16 AM EEST 8:26 PM EEST
Nautical Twilight 5:44 AM EEST 8:59 PM EEST
Astronomical Twilight 5:10 AM EEST 9:32 PM EEST
Moon No Moon Rise 9:46 AM EEST (4/19)
Length of Visible Light 14h 10m
Length of Day
13h 16m
Tomorrow will be 2m 10s longer.
Waning Gibbous, 85% of the Moon is Illuminated
Apr 18
Waning Gibbous
Apr 22
Last Quarter
Apr 29
New
May 6
First Quarter
May 14
Full

Yesterday's Extremes

Country Highs Country Lows

Community

  • Spring Chickadee
    Spring Chickadee
  • What's for Lunch?
    What's for Lunch?
  • SUNRISE THROUGH THE TREES.
    SUNRISE THROUGH THE TREES.
  • Dog Wood Blossoms
    Dog Wood Blossoms
  • Morning Light
    Morning Light

WunderPhotos

Upload Photos

1,702,543 photos uploaded!

WunderBlogs® & News

Nearby

Snow Depth

Not available.

Coastal Water Temperatures

Place Temperature
No Stations Reporting

Earthquake Activity

City Distance Mag. Time & Date
No recent earthquake activity has been reported nearby.
Minimum magnitude displayed is 2.5.

Nearby Weather Stations

There are no personal weather stations in this area.

What do you think?

We're not finished. Please let us know what you like, what you don't like, and what you are still missing.